sensor_id;sensor_type;location;lat;lon;timestamp;pressure;altitude;pressure_sealevel;temperature;humidity
27334;BME280;14817;57.104;-2.094;2023-07-13T00:01:32;99697.25;;;15.25;100.00
27334;BME280;14817;57.104;-2.094;2023-07-13T00:03:59;99701.19;;;15.22;100.00
27334;BME280;14817;57.104;-2.094;2023-07-13T00:06:26;99700.19;;;15.30;100.00
27334;BME280;14817;57.104;-2.094;2023-07-13T00:08:57;99703.06;;;15.28;100.00
27334;BME280;14817;57.104;-2.094;2023-07-13T00:11:23;99699.72;;;15.13;100.00
27334;BME280;14817;57.104;-2.094;2023-07-13T00:13:51;99702.56;;;15.05;100.00
27334;BME280;14817;57.104;-2.094;2023-07-13T00:16:17;99697.91;;;14.79;100.00
27334;BME280;14817;57.104;-2.094;2023-07-13T00:18:46;99709.72;;;14.78;100.00
27334;BME280;14817;57.104;-2.094;2023-07-13T00:21:13;99705.69;;;14.60;100.00
27334;BME280;14817;57.104;-2.094;2023-07-13T00:23:42;99708.47;;;14.45;100.00
27334;BME280;14817;57.104;-2.094;2023-07-13T00:26:11;99711.97;;;14.46;100.00
27334;BME280;14817;57.104;-2.094;2023-07-13T00:28:39;99705.78;;;14.45;100.00
27334;BME280;14817;57.104;-2.094;2023-07-13T00:31:10;99698.28;;;14.41;100.00
27334;BME280;14817;57.104;-2.094;2023-07-13T00:33:37;99690.69;;;14.51;100.00
27334;BME280;14817;57.104;-2.094;2023-07-13T00:36:04;99680.66;;;14.38;100.00
27334;BME280;14817;57.104;-2.094;2023-07-13T00:38:31;99687.09;;;14.44;100.00
27334;BME280;14817;57.104;-2.094;2023-07-13T00:40:58;99669.44;;;14.35;100.00
27334;BME280;14817;57.104;-2.094;2023-07-13T00:43:27;99672.34;;;14.33;100.00
27334;BME280;14817;57.104;-2.094;2023-07-13T00:48:27;99662.44;;;14.40;100.00
27334;BME280;14817;57.104;-2.094;2023-07-13T00:50:58;99650.03;;;14.46;100.00
27334;BME280;14817;57.104;-2.094;2023-07-13T00:53:27;99638.97;;;14.69;100.00
27334;BME280;14817;57.104;-2.094;2023-07-13T00:55:56;99626.09;;;14.58;100.00
27334;BME280;14817;57.104;-2.094;2023-07-13T00:58:26;99609.28;;;14.21;100.00
27334;BME280;14817;57.104;-2.094;2023-07-13T01:00:54;99586.72;;;14.22;100.00
27334;BME280;14817;57.104;-2.094;2023-07-13T01:03:21;99583.22;;;14.28;100.00
27334;BME280;14817;57.104;-2.094;2023-07-13T01:05:49;99571.13;;;14.11;100.00
27334;BME280;14817;57.104;-2.094;2023-07-13T01:08:16;99514.94;;;14.01;100.00
27334;BME280;14817;57.104;-2.094;2023-07-13T01:10:57;99481.97;;;13.92;100.00
27334;BME280;14817;57.104;-2.094;2023-07-13T01:13:25;99345.13;;;13.89;100.00
27334;BME280;14817;57.104;-2.094;2023-07-13T01:15:53;99232.47;;;13.86;100.00
27334;BME280;14817;57.104;-2.094;2023-07-13T01:18:25;99189.22;;;13.94;100.00
27334;BME280;14817;57.104;-2.094;2023-07-13T01:20:59;99166.84;;;13.74;100.00
27334;BME280;14817;57.104;-2.094;2023-07-13T01:23:27;99127.50;;;13.99;100.00
27334;BME280;14817;57.104;-2.094;2023-07-13T01:25:55;99115.13;;;13.85;100.00
27334;BME280;14817;57.104;-2.094;2023-07-13T01:28:23;99103.28;;;13.93;100.00
27334;BME280;14817;57.104;-2.094;2023-07-13T01:30:55;99099.75;;;14.05;100.00
27334;BME280;14817;57.104;-2.094;2023-07-13T01:33:23;99097.06;;;13.99;100.00
27334;BME280;14817;57.104;-2.094;2023-07-13T01:35:50;99116.94;;;13.91;100.00
27334;BME280;14817;57.104;-2.094;2023-07-13T01:38:19;99100.19;;;13.96;100.00
27334;BME280;14817;57.104;-2.094;2023-07-13T01:40:46;99119.06;;;13.89;100.00
27334;BME280;14817;57.104;-2.094;2023-07-13T01:43:13;99125.88;;;13.98;100.00
27334;BME280;14817;57.104;-2.094;2023-07-13T01:45:40;99126.69;;;13.99;100.00
27334;BME280;14817;57.104;-2.094;2023-07-13T01:48:11;99130.41;;;13.84;100.00
27334;BME280;14817;57.104;-2.094;2023-07-13T01:50:38;99125.66;;;13.80;100.00
27334;BME280;14817;57.104;-2.094;2023-07-13T01:53:07;99129.59;;;13.71;100.00
27334;BME280;14817;57.104;-2.094;2023-07-13T01:55:34;99124.44;;;13.89;100.00
27334;BME280;14817;57.104;-2.094;2023-07-13T01:58:03;99136.66;;;13.92;100.00
27334;BME280;14817;57.104;-2.094;2023-07-13T02:00:30;99134.97;;;13.97;100.00
27334;BME280;14817;57.104;-2.094;2023-07-13T02:02:57;99142.63;;;13.74;100.00
27334;BME280;14817;57.104;-2.094;2023-07-13T02:05:24;99138.72;;;13.76;100.00
27334;BME280;14817;57.104;-2.094;2023-07-13T02:07:51;99130.44;;;13.71;100.00
27334;BME280;14817;57.104;-2.094;2023-07-13T02:10:19;99133.34;;;13.83;100.00
27334;BME280;14817;57.104;-2.094;2023-07-13T02:12:48;99129.41;;;13.79;100.00
27334;BME280;14817;57.104;-2.094;2023-07-13T02:15:17;99130.22;;;13.93;100.00
27334;BME280;14817;57.104;-2.094;2023-07-13T02:17:44;99143.28;;;13.89;100.00
27334;BME280;14817;57.104;-2.094;2023-07-13T02:20:11;99135.19;;;13.62;100.00
27334;BME280;14817;57.104;-2.094;2023-07-13T02:22:39;99132.09;;;13.79;100.00
27334;BME280;14817;57.104;-2.094;2023-07-13T02:25:06;99138.31;;;13.73;100.00
27334;BME280;14817;57.104;-2.094;2023-07-13T02:27:33;99152.38;;;13.88;100.00
27334;BME280;14817;57.104;-2.094;2023-07-13T02:30:00;99163.94;;;13.88;100.00
27334;BME280;14817;57.104;-2.094;2023-07-13T02:32:26;99164.78;;;13.82;100.00
27334;BME280;14817;57.104;-2.094;2023-07-13T02:34:53;99172.25;;;13.87;100.00
27334;BME280;14817;57.104;-2.094;2023-07-13T02:37:21;99183.22;;;13.92;100.00
27334;BME280;14817;57.104;-2.094;2023-07-13T02:39:48;99201.25;;;13.85;100.00
27334;BME280;14817;57.104;-2.094;2023-07-13T02:42:15;99202.44;;;13.69;100.00
27334;BME280;14817;57.104;-2.094;2023-07-13T02:44:43;99199.56;;;13.77;100.00
27334;BME280;14817;57.104;-2.094;2023-07-13T02:47:10;99199.38;;;13.79;100.00
27334;BME280;14817;57.104;-2.094;2023-07-13T02:49:37;99205.31;;;13.61;100.00
27334;BME280;14817;57.104;-2.094;2023-07-13T02:52:04;99195.81;;;13.65;100.00
27334;BME280;14817;57.104;-2.094;2023-07-13T02:54:31;99198.50;;;13.65;100.00
27334;BME280;14817;57.104;-2.094;2023-07-13T02:56:58;99194.59;;;13.74;100.00
27334;BME280;14817;57.104;-2.094;2023-07-13T02:59:28;99199.75;;;13.62;100.00
27334;BME280;14817;57.104;-2.094;2023-07-13T03:01:55;99201.44;;;13.63;100.00
27334;BME280;14817;57.104;-2.094;2023-07-13T03:04:22;99202.03;;;13.65;100.00
27334;BME280;14817;57.104;-2.094;2023-07-13T03:06:50;99197.06;;;13.76;100.00
27334;BME280;14817;57.104;-2.094;2023-07-13T03:09:17;99202.25;;;13.64;100.00
27334;BME280;14817;57.104;-2.094;2023-07-13T03:11:55;99204.50;;;13.47;100.00
27334;BME280;14817;57.104;-2.094;2023-07-13T03:14:28;99190.03;;;13.68;100.00
27334;BME280;14817;57.104;-2.094;2023-07-13T03:16:55;99198.75;;;13.70;100.00
27334;BME280;14817;57.104;-2.094;2023-07-13T03:19:26;99202.06;;;13.85;100.00
27334;BME280;14817;57.104;-2.094;2023-07-13T03:21:54;99212.63;;;13.87;100.00
27334;BME280;14817;57.104;-2.094;2023-07-13T03:24:21;99215.50;;;13.92;100.00
27334;BME280;14817;57.104;-2.094;2023-07-13T03:26:51;99238.47;;;13.75;100.00
27334;BME280;14817;57.104;-2.094;2023-07-13T03:29:18;99237.84;;;13.79;100.00
27334;BME280;14817;57.104;-2.094;2023-07-13T03:31:45;99234.16;;;13.94;100.00
27334;BME280;14817;57.104;-2.094;2023-07-13T03:34:13;99236.81;;;13.80;100.00
27334;BME280;14817;57.104;-2.094;2023-07-13T03:36:40;99241.38;;;13.86;100.00
27334;BME280;14817;57.104;-2.094;2023-07-13T03:39:10;99240.97;;;13.89;100.00
27334;BME280;14817;57.104;-2.094;2023-07-13T03:41:47;99239.72;;;13.79;100.00
27334;BME280;14817;57.104;-2.094;2023-07-13T03:44:18;99232.69;;;13.91;100.00
27334;BME280;14817;57.104;-2.094;2023-07-13T03:46:49;99236.44;;;13.97;100.00
27334;BME280;14817;57.104;-2.094;2023-07-13T03:49:16;99234.16;;;14.00;100.00
27334;BME280;14817;57.104;-2.094;2023-07-13T03:51:43;99243.69;;;13.96;100.00
27334;BME280;14817;57.104;-2.094;2023-07-13T03:54:10;99242.22;;;14.00;100.00
27334;BME280;14817;57.104;-2.094;2023-07-13T03:56:37;99239.53;;;14.07;100.00
27334;BME280;14817;57.104;-2.094;2023-07-13T03:59:06;99240.97;;;14.09;100.00
27334;BME280;14817;57.104;-2.094;2023-07-13T04:01:33;99235.81;;;14.01;100.00
27334;BME280;14817;57.104;-2.094;2023-07-13T04:04:00;99244.50;;;14.03;100.00
27334;BME280;14817;57.104;-2.094;2023-07-13T04:06:30;99240.56;;;13.86;100.00
27334;BME280;14817;57.104;-2.094;2023-07-13T04:09:00;99240.38;;;13.94;100.00
27334;BME280;14817;57.104;-2.094;2023-07-13T04:11:32;99241.59;;;13.98;100.00
27334;BME280;14817;57.104;-2.094;2023-07-13T04:13:59;99244.91;;;13.94;100.00
27334;BME280;14817;57.104;-2.094;2023-07-13T04:16:26;99230.84;;;13.85;100.00
27334;BME280;14817;57.104;-2.094;2023-07-13T04:18:54;99221.31;;;13.89;100.00
27334;BME280;14817;57.104;-2.094;2023-07-13T04:21:27;99214.88;;;13.90;100.00
27334;BME280;14817;57.104;-2.094;2023-07-13T04:23:54;99210.75;;;13.94;100.00
27334;BME280;14817;57.104;-2.094;2023-07-13T04:26:22;99210.94;;;13.93;100.00
27334;BME280;14817;57.104;-2.094;2023-07-13T04:28:50;99207.44;;;13.92;100.00
27334;BME280;14817;57.104;-2.094;2023-07-13T04:31:17;99210.94;;;13.86;100.00
27334;BME280;14817;57.104;-2.094;2023-07-13T04:33:44;99204.94;;;13.84;100.00
27334;BME280;14817;57.104;-2.094;2023-07-13T04:36:15;99213.22;;;13.82;100.00
27334;BME280;14817;57.104;-2.094;2023-07-13T04:38:42;99215.50;;;13.92;100.00
27334;BME280;14817;57.104;-2.094;2023-07-13T04:41:09;99221.72;;;13.79;100.00
27334;BME280;14817;57.104;-2.094;2023-07-13T04:43:36;99234.75;;;13.76;100.00
27334;BME280;14817;57.104;-2.094;2023-07-13T04:46:05;99229.59;;;14.01;100.00
27334;BME280;14817;57.104;-2.094;2023-07-13T04:48:33;99231.44;;;13.74;100.00
27334;BME280;14817;57.104;-2.094;2023-07-13T04:51:01;99230.59;;;13.80;100.00
27334;BME280;14817;57.104;-2.094;2023-07-13T04:53:28;99240.97;;;13.89;100.00
27334;BME280;14817;57.104;-2.094;2023-07-13T04:55:56;99233.94;;;13.88;100.00
27334;BME280;14817;57.104;-2.094;2023-07-13T04:58:23;99229.59;;;14.01;100.00
27334;BME280;14817;57.104;-2.094;2023-07-13T05:00:50;99231.03;;;14.03;100.00
27334;BME280;14817;57.104;-2.094;2023-07-13T05:03:17;99233.97;;;14.02;100.00
27334;BME280;14817;57.104;-2.094;2023-07-13T05:05:54;99235.19;;;14.06;100.00
27334;BME280;14817;57.104;-2.094;2023-07-13T05:08:22;99233.75;;;14.17;100.00
27334;BME280;14817;57.104;-2.094;2023-07-13T05:10:50;99247.38;;;13.88;100.00
27334;BME280;14817;57.104;-2.094;2023-07-13T05:13:17;99234.97;;;13.94;100.00
27334;BME280;14817;57.104;-2.094;2023-07-13T05:15:43;99239.75;;;13.92;100.00
27334;BME280;14817;57.104;-2.094;2023-07-13T05:18:10;99231.84;;;13.91;100.00
27334;BME280;14817;57.104;-2.094;2023-07-13T05:20:37;99233.94;;;14.15;100.00
27334;BME280;14817;57.104;-2.094;2023-07-13T05:23:04;99238.91;;;14.12;100.00
27334;BME280;14817;57.104;-2.094;2023-07-13T05:25:31;99241.41;;;14.20;100.00
27334;BME280;14817;57.104;-2.094;2023-07-13T05:27:58;99244.09;;;14.33;100.00
27334;BME280;14817;57.104;-2.094;2023-07-13T05:30:25;99246.34;;;14.49;100.00
27334;BME280;14817;57.104;-2.094;2023-07-13T05:32:52;99257.75;;;14.65;100.00
27334;BME280;14817;57.104;-2.094;2023-07-13T05:35:19;99270.34;;;14.84;100.00
27334;BME280;14817;57.104;-2.094;2023-07-13T05:37:45;99288.72;;;15.14;100.00
27334;BME280;14817;57.104;-2.094;2023-07-13T05:40:12;99300.47;;;15.40;100.00
27334;BME280;14817;57.104;-2.094;2023-07-13T05:42:39;99334.06;;;15.44;100.00
27334;BME280;14817;57.104;-2.094;2023-07-13T05:45:06;99360.03;;;15.31;100.00
27334;BME280;14817;57.104;-2.094;2023-07-13T05:47:33;99387.88;;;15.25;100.00
27334;BME280;14817;57.104;-2.094;2023-07-13T05:50:00;99388.84;;;15.51;100.00
27334;BME280;14817;57.104;-2.094;2023-07-13T05:52:31;99407.69;;;15.78;100.00
27334;BME280;14817;57.104;-2.094;2023-07-13T05:54:58;99422.50;;;15.42;100.00
27334;BME280;14817;57.104;-2.094;2023-07-13T05:57:25;99434.91;;;15.56;100.00
27334;BME280;14817;57.104;-2.094;2023-07-13T05:59:52;99442.16;;;16.59;100.00
27334;BME280;14817;57.104;-2.094;2023-07-13T06:02:19;99488.16;;;16.52;100.00
27334;BME280;14817;57.104;-2.094;2023-07-13T06:04:45;99516.25;;;16.90;100.00
27334;BME280;14817;57.104;-2.094;2023-07-13T06:07:12;99532.94;;;17.81;100.00
27334;BME280;14817;57.104;-2.094;2023-07-13T06:09:39;99588.22;;;18.72;100.00
27334;BME280;14817;57.104;-2.094;2023-07-13T06:12:07;99613.34;;;18.97;100.00
27334;BME280;14817;57.104;-2.094;2023-07-13T06:14:34;99660.31;;;19.28;100.00
27334;BME280;14817;57.104;-2.094;2023-07-13T06:17:00;99683.50;;;18.39;100.00
27334;BME280;14817;57.104;-2.094;2023-07-13T06:19:28;99688.25;;;18.43;100.00
27334;BME280;14817;57.104;-2.094;2023-07-13T06:21:56;99696.31;;;18.68;100.00
27334;BME280;14817;57.104;-2.094;2023-07-13T06:24:23;99726.47;;;19.46;100.00
27334;BME280;14817;57.104;-2.094;2023-07-13T06:26:50;99734.47;;;18.73;100.00
27334;BME280;14817;57.104;-2.094;2023-07-13T06:29:17;99742.88;;;18.22;100.00
27334;BME280;14817;57.104;-2.094;2023-07-13T06:31:44;99758.16;;;18.16;100.00
27334;BME280;14817;57.104;-2.094;2023-07-13T06:34:10;99766.28;;;18.16;100.00
27334;BME280;14817;57.104;-2.094;2023-07-13T06:36:37;99795.97;;;18.04;100.00
27334;BME280;14817;57.104;-2.094;2023-07-13T06:39:06;99830.22;;;17.92;100.00
27334;BME280;14817;57.104;-2.094;2023-07-13T06:41:33;99839.72;;;17.63;100.00
27334;BME280;14817;57.104;-2.094;2023-07-13T06:44:01;99838.22;;;17.15;100.00
27334;BME280;14817;57.104;-2.094;2023-07-13T06:46:29;99831.63;;;17.49;100.00
27334;BME280;14817;57.104;-2.094;2023-07-13T06:48:56;99836.94;;;17.83;100.00
27334;BME280;14817;57.104;-2.094;2023-07-13T06:51:23;99843.03;;;17.71;100.00
27334;BME280;14817;57.104;-2.094;2023-07-13T06:53:50;99839.16;;;17.41;100.00
27334;BME280;14817;57.104;-2.094;2023-07-13T06:56:17;99835.88;;;17.32;100.00
27334;BME280;14817;57.104;-2.094;2023-07-13T06:58:44;99844.75;;;17.52;100.00
27334;BME280;14817;57.104;-2.094;2023-07-13T07:01:10;99845.63;;;17.46;100.00
27334;BME280;14817;57.104;-2.094;2023-07-13T07:03:38;99853.81;;;17.13;100.00
27334;BME280;14817;57.104;-2.094;2023-07-13T07:06:17;99865.28;;;17.15;100.00
27334;BME280;14817;57.104;-2.094;2023-07-13T07:08:45;99849.84;;;17.29;100.00
27334;BME280;14817;57.104;-2.094;2023-07-13T07:11:14;99846.94;;;17.17;100.00
27334;BME280;14817;57.104;-2.094;2023-07-13T07:13:41;99859.06;;;17.08;100.00
27334;BME280;14817;57.104;-2.094;2023-07-13T07:16:08;99871.31;;;17.10;100.00
27334;BME280;14817;57.104;-2.094;2023-07-13T07:18:35;99857.16;;;17.28;100.00
27334;BME280;14817;57.104;-2.094;2023-07-13T07:21:03;99879.63;;;17.22;100.00
27334;BME280;14817;57.104;-2.094;2023-07-13T07:23:30;99873.13;;;17.37;100.00
27334;BME280;14817;57.104;-2.094;2023-07-13T07:25:57;99869.72;;;17.61;100.00
27334;BME280;14817;57.104;-2.094;2023-07-13T07:28:24;99873.81;;;17.19;100.00
27334;BME280;14817;57.104;-2.094;2023-07-13T07:30:56;99876.25;;;17.40;100.00
27334;BME280;14817;57.104;-2.094;2023-07-13T07:33:26;99881.81;;;17.59;100.00
27334;BME280;14817;57.104;-2.094;2023-07-13T07:35:53;99879.78;;;17.99;100.00
27334;BME280;14817;57.104;-2.094;2023-07-13T07:38:23;99878.22;;;18.48;100.00
27334;BME280;14817;57.104;-2.094;2023-07-13T07:40:51;99878.47;;;18.40;100.00
27334;BME280;14817;57.104;-2.094;2023-07-13T07:43:20;99881.78;;;18.99;100.00
27334;BME280;14817;57.104;-2.094;2023-07-13T07:45:47;99876.63;;;18.66;100.00
27334;BME280;14817;57.104;-2.094;2023-07-13T07:48:14;99882.94;;;18.28;100.00
27334;BME280;14817;57.104;-2.094;2023-07-13T07:50:41;99887.00;;;18.69;100.00
27334;BME280;14817;57.104;-2.094;2023-07-13T07:53:08;99878.75;;;19.07;100.00
27334;BME280;14817;57.104;-2.094;2023-07-13T07:55:37;99890.38;;;18.07;100.00
27334;BME280;14817;57.104;-2.094;2023-07-13T07:58:07;99883.75;;;18.60;100.00
27334;BME280;14817;57.104;-2.094;2023-07-13T08:00:53;99891.94;;;18.22;100.00
27334;BME280;14817;57.104;-2.094;2023-07-13T08:03:23;99889.41;;;18.59;100.00
27334;BME280;14817;57.104;-2.094;2023-07-13T08:05:53;99893.06;;;18.46;100.00
27334;BME280;14817;57.104;-2.094;2023-07-13T08:08:23;99890.38;;;18.39;100.00
27334;BME280;14817;57.104;-2.094;2023-07-13T08:10:50;99892.53;;;17.20;100.00
27334;BME280;14817;57.104;-2.094;2023-07-13T08:13:21;99897.06;;;17.98;100.00
27334;BME280;14817;57.104;-2.094;2023-07-13T08:15:48;99894.13;;;18.06;100.00
27334;BME280;14817;57.104;-2.094;2023-07-13T08:18:16;99894.19;;;18.31;100.00
27334;BME280;14817;57.104;-2.094;2023-07-13T08:20:43;99896.53;;;18.53;100.00
27334;BME280;14817;57.104;-2.094;2023-07-13T08:23:11;99896.06;;;18.63;100.00
27334;BME280;14817;57.104;-2.094;2023-07-13T08:25:38;99893.63;;;18.80;100.00
27334;BME280;14817;57.104;-2.094;2023-07-13T08:28:05;99893.41;;;18.49;100.00
27334;BME280;14817;57.104;-2.094;2023-07-13T08:30:32;99889.81;;;18.87;100.00
27334;BME280;14817;57.104;-2.094;2023-07-13T08:32:59;99893.66;;;19.23;100.00
27334;BME280;14817;57.104;-2.094;2023-07-13T08:35:26;99901.75;;;19.05;100.00
27334;BME280;14817;57.104;-2.094;2023-07-13T08:37:53;99887.84;;;18.44;100.00
27334;BME280;14817;57.104;-2.094;2023-07-13T08:40:24;99870.59;;;18.32;100.00
27334;BME280;14817;57.104;-2.094;2023-07-13T08:42:54;99869.66;;;18.20;100.00
27334;BME280;14817;57.104;-2.094;2023-07-13T08:45:30;99875.56;;;18.10;100.00
27334;BME280;14817;57.104;-2.094;2023-07-13T08:48:32;99889.34;;;18.02;100.00
27334;BME280;14817;57.104;-2.094;2023-07-13T08:51:02;99882.66;;;17.52;100.00
27334;BME280;14817;57.104;-2.094;2023-07-13T08:53:37;99887.06;;;17.47;100.00
27334;BME280;14817;57.104;-2.094;2023-07-13T08:56:17;99886.28;;;17.13;100.00
27334;BME280;14817;57.104;-2.094;2023-07-13T08:58:49;99878.53;;;17.50;100.00
27334;BME280;14817;57.104;-2.094;2023-07-13T09:01:56;99878.25;;;17.65;100.00
27334;BME280;14817;57.104;-2.094;2023-07-13T09:04:29;99888.13;;;17.46;100.00
27334;BME280;14817;57.104;-2.094;2023-07-13T09:12:40;99885.81;;;18.90;100.00
27334;BME280;14817;57.104;-2.094;2023-07-13T09:15:29;99894.25;;;18.75;100.00
27334;BME280;14817;57.104;-2.094;2023-07-13T09:18:09;99895.72;;;18.52;100.00
27334;BME280;14817;57.104;-2.094;2023-07-13T09:20:44;99890.34;;;19.21;100.00
27334;BME280;14817;57.104;-2.094;2023-07-13T09:23:15;99897.81;;;18.82;100.00
27334;BME280;14817;57.104;-2.094;2023-07-13T09:25:49;99895.94;;;18.76;100.00
27334;BME280;14817;57.104;-2.094;2023-07-13T09:28:27;99902.00;;;18.46;100.00
27334;BME280;14817;57.104;-2.094;2023-07-13T09:31:07;99900.69;;;18.55;100.00
27334;BME280;14817;57.104;-2.094;2023-07-13T09:33:39;99898.78;;;18.63;100.00
27334;BME280;14817;57.104;-2.094;2023-07-13T09:36:25;99908.47;;;18.45;100.00
27334;BME280;14817;57.104;-2.094;2023-07-13T09:41:53;99908.13;;;18.03;100.00
27334;BME280;14817;57.104;-2.094;2023-07-13T09:44:34;99897.88;;;18.05;100.00
27334;BME280;14817;57.104;-2.094;2023-07-13T09:47:02;99893.00;;;17.82;100.00
27334;BME280;14817;57.104;-2.094;2023-07-13T09:49:35;99900.69;;;17.85;100.00
27334;BME280;14817;57.104;-2.094;2023-07-13T09:52:10;99902.59;;;17.71;100.00
27334;BME280;14817;57.104;-2.094;2023-07-13T09:54:37;99909.72;;;17.59;100.00
27334;BME280;14817;57.104;-2.094;2023-07-13T09:57:16;99904.75;;;17.56;100.00
27334;BME280;14817;57.104;-2.094;2023-07-13T09:59:47;99911.91;;;17.30;100.00
27334;BME280;14817;57.104;-2.094;2023-07-13T10:02:33;99918.94;;;17.31;100.00
27334;BME280;14817;57.104;-2.094;2023-07-13T10:05:04;99927.28;;;16.63;100.00
27334;BME280;14817;57.104;-2.094;2023-07-13T10:07:32;99915.84;;;16.68;100.00
27334;BME280;14817;57.104;-2.094;2023-07-13T10:10:14;99921.47;;;16.80;100.00
27334;BME280;14817;57.104;-2.094;2023-07-13T10:12:41;99931.47;;;16.79;100.00
27334;BME280;14817;57.104;-2.094;2023-07-13T10:15:16;99935.19;;;16.58;100.00
27334;BME280;14817;57.104;-2.094;2023-07-13T10:17:51;99946.75;;;16.19;100.00
27334;BME280;14817;57.104;-2.094;2023-07-13T10:20:20;99954.16;;;15.97;100.00
27334;BME280;14817;57.104;-2.094;2023-07-13T10:22:53;99957.97;;;16.16;100.00
27334;BME280;14817;57.104;-2.094;2023-07-13T10:25:28;99965.13;;;16.57;100.00
27334;BME280;14817;57.104;-2.094;2023-07-13T10:28:23;99964.69;;;16.46;100.00
27334;BME280;14817;57.104;-2.094;2023-07-13T10:30:53;99963.41;;;16.36;100.00
27334;BME280;14817;57.104;-2.094;2023-07-13T10:33:23;99970.59;;;16.08;100.00
27334;BME280;14817;57.104;-2.094;2023-07-13T10:35:55;99971.69;;;16.21;100.00
27334;BME280;14817;57.104;-2.094;2023-07-13T10:38:28;99960.22;;;16.12;100.00
27334;BME280;14817;57.104;-2.094;2023-07-13T10:41:00;99947.00;;;16.44;100.00
27334;BME280;14817;57.104;-2.094;2023-07-13T10:43:56;99942.63;;;16.36;100.00
27334;BME280;14817;57.104;-2.094;2023-07-13T10:46:25;99946.84;;;16.65;100.00
27334;BME280;14817;57.104;-2.094;2023-07-13T10:49:03;99953.88;;;16.46;100.00
27334;BME280;14817;57.104;-2.094;2023-07-13T10:51:31;99952.72;;;16.89;100.00
27334;BME280;14817;57.104;-2.094;2023-07-13T10:54:21;99959.78;;;16.83;100.00
27334;BME280;14817;57.104;-2.094;2023-07-13T10:56:51;99960.00;;;17.02;100.00
27334;BME280;14817;57.104;-2.094;2023-07-13T10:59:25;99969.34;;;17.06;100.00
27334;BME280;14817;57.104;-2.094;2023-07-13T11:01:58;99964.94;;;16.65;100.00
27334;BME280;14817;57.104;-2.094;2023-07-13T11:04:54;99967.97;;;16.28;100.00
27334;BME280;14817;57.104;-2.094;2023-07-13T11:07:30;99958.34;;;16.12;100.00
27334;BME280;14817;57.104;-2.094;2023-07-13T11:10:03;99866.94;;;16.36;100.00
27334;BME280;14817;57.104;-2.094;2023-07-13T11:12:50;99764.50;;;16.35;100.00
27334;BME280;14817;57.104;-2.094;2023-07-13T11:15:30;99760.31;;;16.32;100.00
27334;BME280;14817;57.104;-2.094;2023-07-13T11:18:02;99761.75;;;16.61;100.00
27334;BME280;14817;57.104;-2.094;2023-07-13T11:20:33;99780.44;;;16.76;100.00
27334;BME280;14817;57.104;-2.094;2023-07-13T11:25:39;99787.38;;;16.39;100.00
27334;BME280;14817;57.104;-2.094;2023-07-13T11:28:17;99784.00;;;16.63;100.00
27334;BME280;14817;57.104;-2.094;2023-07-13T11:30:49;99773.81;;;16.65;100.00
27334;BME280;14817;57.104;-2.094;2023-07-13T11:33:30;99775.47;;;16.53;100.00
27334;BME280;14817;57.104;-2.094;2023-07-13T11:36:14;99778.84;;;16.35;100.00
27334;BME280;14817;57.104;-2.094;2023-07-13T11:38:44;99771.75;;;16.47;100.00
27334;BME280;14817;57.104;-2.094;2023-07-13T11:41:21;99757.19;;;16.48;100.00
27334;BME280;14817;57.104;-2.094;2023-07-13T11:43:50;99762.19;;;16.38;100.00
27334;BME280;14817;57.104;-2.094;2023-07-13T11:46:23;99745.97;;;16.51;100.00
27334;BME280;14817;57.104;-2.094;2023-07-13T11:48:51;99755.53;;;16.47;100.00
27334;BME280;14817;57.104;-2.094;2023-07-13T11:53:50;99755.34;;;16.29;100.00
27334;BME280;14817;57.104;-2.094;2023-07-13T11:56:17;99753.44;;;16.56;100.00
27334;BME280;14817;57.104;-2.094;2023-07-13T11:58:48;99750.28;;;16.66;100.00
27334;BME280;14817;57.104;-2.094;2023-07-13T12:01:20;99756.56;;;16.53;100.00
27334;BME280;14817;57.104;-2.094;2023-07-13T12:03:49;99768.19;;;16.53;100.00
27334;BME280;14817;57.104;-2.094;2023-07-13T12:06:25;99758.19;;;16.74;100.00
27334;BME280;14817;57.104;-2.094;2023-07-13T12:08:59;99757.16;;;16.62;100.00
27334;BME280;14817;57.104;-2.094;2023-07-13T12:11:27;99752.78;;;16.74;100.00
27334;BME280;14817;57.104;-2.094;2023-07-13T12:13:54;99753.84;;;16.73;100.00
27334;BME280;14817;57.104;-2.094;2023-07-13T12:16:30;99760.31;;;16.52;100.00
27334;BME280;14817;57.104;-2.094;2023-07-13T12:19:00;99742.66;;;16.49;100.00
27334;BME280;14817;57.104;-2.094;2023-07-13T12:21:32;99728.84;;;16.78;100.00
27334;BME280;14817;57.104;-2.094;2023-07-13T12:24:00;99730.53;;;16.72;100.00
27334;BME280;14817;57.104;-2.094;2023-07-13T12:26:29;99723.91;;;16.54;100.00
27334;BME280;14817;57.104;-2.094;2023-07-13T12:29:00;99726.13;;;16.91;100.00
27334;BME280;14817;57.104;-2.094;2023-07-13T12:34:06;99723.78;;;17.08;100.00
27334;BME280;14817;57.104;-2.094;2023-07-13T12:36:37;99722.34;;;17.05;100.00
27334;BME280;14817;57.104;-2.094;2023-07-13T12:39:13;99723.72;;;17.21;100.00
27334;BME280;14817;57.104;-2.094;2023-07-13T12:41:42;99731.94;;;17.01;100.00
27334;BME280;14817;57.104;-2.094;2023-07-13T12:44:12;99741.34;;;16.85;100.00
27334;BME280;14817;57.104;-2.094;2023-07-13T12:46:52;99748.25;;;17.33;100.00
27334;BME280;14817;57.104;-2.094;2023-07-13T12:49:25;99758.75;;;17.09;100.00
27334;BME280;14817;57.104;-2.094;2023-07-13T12:51:58;99768.72;;;17.16;100.00
27334;BME280;14817;57.104;-2.094;2023-07-13T12:54:27;99786.78;;;17.28;100.00
27334;BME280;14817;57.104;-2.094;2023-07-13T12:56:55;99810.25;;;17.34;100.00
27334;BME280;14817;57.104;-2.094;2023-07-13T12:59:29;99820.03;;;17.42;100.00
27334;BME280;14817;57.104;-2.094;2023-07-13T13:01:56;99815.03;;;17.46;100.00
27334;BME280;14817;57.104;-2.094;2023-07-13T13:04:23;99816.59;;;17.67;100.00
27334;BME280;14817;57.104;-2.094;2023-07-13T13:07:01;99820.84;;;17.94;100.00
27334;BME280;14817;57.104;-2.094;2023-07-13T13:09:28;99832.09;;;17.91;100.00
27334;BME280;14817;57.104;-2.094;2023-07-13T13:11:55;99854.75;;;18.35;100.00
27334;BME280;14817;57.104;-2.094;2023-07-13T13:14:22;99852.13;;;18.47;100.00